JTC321 KATL-KVNY
Flight info
| Callsign | JTC321 |
|---|---|
| Flight time | N/A |
| Altitude | 34000 |
| Route | NASSA2 YAALL J14 CRUSR DCT DHT DCT ESPAN DCT COCAN DCT ZIVSI DCT WELUM JANNY5 |
| Aircraft | A321/M-SDE3FGHIRWY/LB1 |
Departure
| Time | N/A |
|---|---|
| Airport | Hartsfield Jackson Atlanta International Airport (KATL) |
Arrival
| Time | 2026-05-09 20:49 |
|---|---|
| Airport | Van Nuys Airport (KVNY) |
| Time | Latitude | Longitude | Altitude | Speed | Heading |
|---|---|---|---|---|---|
| 2026-05-09 20:11 | 35.49577 | -114.53452 | 23915 ft | 413 kts | 253° |
| 2026-05-09 20:11 | 35.48635 | -114.56778 | 23906 ft | 413 kts | 253° |
| 2026-05-09 20:11 | 35.47691 | -114.60106 | 23901 ft | 413 kts | 253° |
| 2026-05-09 20:12 | 35.46748 | -114.63433 | 23895 ft | 414 kts | 253° |
| 2026-05-09 20:12 | 35.45802 | -114.66766 | 23866 ft | 414 kts | 253° |
| 2026-05-09 20:12 | 35.44854 | -114.70108 | 23871 ft | 420 kts | 253° |
| 2026-05-09 20:12 | 35.43880 | -114.73544 | 23870 ft | 433 kts | 253° |
| 2026-05-09 20:13 | 35.42881 | -114.77058 | 23869 ft | 439 kts | 253° |
| 2026-05-09 20:13 | 35.42212 | -114.79404 | 23869 ft | 441 kts | 253° |
| 2026-05-09 20:13 | 35.41193 | -114.82954 | 23870 ft | 441 kts | 253° |
| 2026-05-09 20:13 | 35.40169 | -114.86500 | 23877 ft | 442 kts | 253° |
| 2026-05-09 20:14 | 35.39143 | -114.90049 | 23880 ft | 442 kts | 253° |
| 2026-05-09 20:14 | 35.38121 | -114.93596 | 23898 ft | 442 kts | 253° |
| 2026-05-09 20:14 | 35.37101 | -114.97154 | 23896 ft | 442 kts | 253° |
| 2026-05-09 20:14 | 35.36085 | -115.00704 | 23897 ft | 442 kts | 253° |
| 2026-05-09 20:15 | 35.35065 | -115.04261 | 23931 ft | 442 kts | 253° |
| 2026-05-09 20:15 | 35.34039 | -115.07811 | 23902 ft | 442 kts | 252° |
| 2026-05-09 20:15 | 35.33010 | -115.11356 | 23906 ft | 442 kts | 253° |
| 2026-05-09 20:15 | 35.31980 | -115.14906 | 23902 ft | 442 kts | 253° |
| 2026-05-09 20:16 | 35.30958 | -115.18460 | 23914 ft | 443 kts | 253° |
| 2026-05-09 20:16 | 35.29936 | -115.22016 | 23915 ft | 442 kts | 253° |
| 2026-05-09 20:16 | 35.28913 | -115.25562 | 23920 ft | 442 kts | 253° |
| 2026-05-09 20:16 | 35.27887 | -115.29116 | 23925 ft | 443 kts | 253° |
| 2026-05-09 20:17 | 35.26855 | -115.32668 | 23957 ft | 443 kts | 253° |
| 2026-05-09 20:17 | 35.25827 | -115.36189 | 23921 ft | 431 kts | 253° |
| 2026-05-09 20:17 | 35.24827 | -115.39596 | 23936 ft | 427 kts | 253° |
| 2026-05-09 20:17 | 35.23813 | -115.43068 | 23936 ft | 440 kts | 253° |
| 2026-05-09 20:18 | 35.22772 | -115.46634 | 23967 ft | 448 kts | 253° |
| 2026-05-09 20:18 | 35.21720 | -115.50232 | 23932 ft | 450 kts | 253° |
| 2026-05-09 20:18 | 35.20663 | -115.53833 | 23944 ft | 451 kts | 252° |
| 2026-05-09 20:18 | 35.19601 | -115.57388 | 23946 ft | 451 kts | 252° |
| 2026-05-09 20:19 | 35.18526 | -115.60997 | 23951 ft | 452 kts | 252° |
| 2026-05-09 20:19 | 35.17443 | -115.64653 | 23958 ft | 452 kts | 252° |
| 2026-05-09 20:19 | 35.16390 | -115.68219 | 23945 ft | 452 kts | 252° |
| 2026-05-09 20:19 | 35.15323 | -115.71830 | 23949 ft | 452 kts | 252° |
| 2026-05-09 20:20 | 35.14243 | -115.75489 | 23959 ft | 452 kts | 252° |
| 2026-05-09 20:20 | 35.13190 | -115.79056 | 23950 ft | 452 kts | 252° |
| 2026-05-09 20:20 | 35.11874 | -115.82548 | 23957 ft | 456 kts | 242° |
| 2026-05-09 20:20 | 35.10213 | -115.85851 | 23947 ft | 456 kts | 241° |
| 2026-05-09 20:21 | 35.08542 | -115.89145 | 23950 ft | 457 kts | 241° |
| 2026-05-09 20:21 | 35.06868 | -115.92435 | 23956 ft | 457 kts | 241° |
| 2026-05-09 20:21 | 35.05189 | -115.95733 | 23957 ft | 457 kts | 241° |
| 2026-05-09 20:21 | 35.03511 | -115.99024 | 23952 ft | 457 kts | 241° |
| 2026-05-09 20:22 | 35.01829 | -116.02316 | 23957 ft | 458 kts | 240° |
| 2026-05-09 20:22 | 35.00146 | -116.05614 | 23945 ft | 458 kts | 241° |
| 2026-05-09 20:22 | 34.98465 | -116.08916 | 23951 ft | 458 kts | 241° |
| 2026-05-09 20:22 | 34.96783 | -116.12218 | 23957 ft | 459 kts | 241° |
| 2026-05-09 20:23 | 34.95096 | -116.15525 | 23947 ft | 459 kts | 241° |
| 2026-05-09 20:23 | 34.93404 | -116.18829 | 23946 ft | 460 kts | 240° |
| 2026-05-09 20:23 | 34.91754 | -116.22160 | 23941 ft | 458 kts | 245° |
| 2026-05-09 20:23 | 34.90381 | -116.25655 | 23952 ft | 458 kts | 247° |
| 2026-05-09 20:24 | 34.89025 | -116.29164 | 23989 ft | 458 kts | 247° |
| 2026-05-09 20:24 | 34.87669 | -116.32676 | 23987 ft | 459 kts | 247° |
| 2026-05-09 20:24 | 34.86311 | -116.36189 | 23981 ft | 459 kts | 247° |
| 2026-05-09 20:24 | 34.84949 | -116.39705 | 23971 ft | 459 kts | 247° |
| 2026-05-09 20:25 | 34.83582 | -116.43218 | 23968 ft | 459 kts | 247° |
| 2026-05-09 20:25 | 34.82207 | -116.46731 | 23974 ft | 460 kts | 247° |
| 2026-05-09 20:25 | 34.80829 | -116.50252 | 23335 ft | 463 kts | 247° |
| 2026-05-09 20:25 | 34.79472 | -116.53770 | 22861 ft | 450 kts | 250° |
| 2026-05-09 20:26 | 34.78604 | -116.57278 | 23006 ft | 421 kts | 262° |
| 2026-05-09 20:26 | 34.78227 | -116.60726 | 22839 ft | 404 kts | 265° |
| 2026-05-09 20:26 | 34.77904 | -116.64082 | 22417 ft | 396 kts | 265° |
| 2026-05-09 20:26 | 34.77591 | -116.67365 | 22170 ft | 383 kts | 265° |
| 2026-05-09 20:27 | 34.77286 | -116.70529 | 21998 ft | 372 kts | 265° |
| 2026-05-09 20:27 | 34.76985 | -116.73642 | 21847 ft | 369 kts | 265° |
| 2026-05-09 20:27 | 34.76686 | -116.76734 | 21724 ft | 368 kts | 265° |
| 2026-05-09 20:27 | 34.76385 | -116.79820 | 21601 ft | 367 kts | 265° |
| 2026-05-09 20:28 | 34.76084 | -116.82900 | 21480 ft | 366 kts | 265° |
| 2026-05-09 20:28 | 34.75783 | -116.85970 | 21358 ft | 365 kts | 265° |
| 2026-05-09 20:28 | 34.75485 | -116.88994 | 21244 ft | 365 kts | 265° |
| 2026-05-09 20:29 | 34.74871 | -116.95107 | 21039 ft | 364 kts | 265° |
| 2026-05-09 20:29 | 34.74561 | -116.98155 | 20904 ft | 363 kts | 265° |
| 2026-05-09 20:29 | 34.74252 | -117.01200 | 20790 ft | 363 kts | 265° |
| 2026-05-09 20:29 | 34.73943 | -117.04241 | 20680 ft | 362 kts | 265° |
| 2026-05-09 20:30 | 34.73634 | -117.07277 | 20568 ft | 361 kts | 265° |
| 2026-05-09 20:30 | 34.73324 | -117.10304 | 20449 ft | 361 kts | 265° |
| 2026-05-09 20:30 | 34.73015 | -117.13325 | 20338 ft | 360 kts | 265° |
| 2026-05-09 20:30 | 34.72705 | -117.16341 | 20218 ft | 359 kts | 265° |
| 2026-05-09 20:31 | 34.72391 | -117.19352 | 20095 ft | 359 kts | 265° |
| 2026-05-09 20:31 | 34.72079 | -117.22360 | 19989 ft | 358 kts | 265° |
| 2026-05-09 20:31 | 34.71771 | -117.25360 | 19879 ft | 358 kts | 265° |
| 2026-05-09 20:31 | 34.71461 | -117.28355 | 19749 ft | 357 kts | 265° |
| 2026-05-09 20:32 | 34.71149 | -117.31349 | 19628 ft | 357 kts | 265° |
| 2026-05-09 20:32 | 34.70837 | -117.34337 | 19520 ft | 356 kts | 265° |
| 2026-05-09 20:32 | 34.70523 | -117.37317 | 19386 ft | 355 kts | 265° |
| 2026-05-09 20:32 | 34.70209 | -117.40291 | 19270 ft | 355 kts | 265° |
| 2026-05-09 20:33 | 34.69894 | -117.43257 | 19151 ft | 354 kts | 265° |
| 2026-05-09 20:33 | 34.69584 | -117.46219 | 19035 ft | 353 kts | 265° |
| 2026-05-09 20:33 | 34.69274 | -117.49180 | 18671 ft | 353 kts | 265° |
| 2026-05-09 20:33 | 34.68967 | -117.52084 | 18285 ft | 350 kts | 264° |
| 2026-05-09 20:34 | 34.68656 | -117.55008 | 17950 ft | 348 kts | 265° |
| 2026-05-09 20:34 | 34.68345 | -117.57919 | 17567 ft | 347 kts | 264° |
| 2026-05-09 20:34 | 34.68034 | -117.60816 | 17194 ft | 345 kts | 264° |
| 2026-05-09 20:34 | 34.67724 | -117.63700 | 16834 ft | 344 kts | 264° |
| 2026-05-09 20:35 | 34.67419 | -117.66572 | 16481 ft | 342 kts | 264° |
| 2026-05-09 20:35 | 34.67116 | -117.69436 | 16112 ft | 341 kts | 264° |
| 2026-05-09 20:35 | 34.66814 | -117.72289 | 15754 ft | 340 kts | 264° |
| 2026-05-09 20:35 | 34.66511 | -117.75131 | 15401 ft | 339 kts | 264° |
| 2026-05-09 20:36 | 34.66208 | -117.77964 | 15081 ft | 338 kts | 263° |
| 2026-05-09 20:36 | 34.65904 | -117.80786 | 14711 ft | 336 kts | 263° |
| 2026-05-09 20:36 | 34.65602 | -117.83597 | 14348 ft | 335 kts | 263° |
| 2026-05-09 20:36 | 34.65301 | -117.86400 | 14005 ft | 334 kts | 263° |
| 2026-05-09 20:37 | 34.65002 | -117.89193 | 13647 ft | 333 kts | 263° |
| 2026-05-09 20:37 | 34.64703 | -117.91972 | 13252 ft | 331 kts | 263° |
| 2026-05-09 20:37 | 34.64403 | -117.94740 | 12866 ft | 330 kts | 263° |
| 2026-05-09 20:37 | 34.64103 | -117.97499 | 12488 ft | 329 kts | 262° |
| 2026-05-09 20:38 | 34.63799 | -118.00243 | 12139 ft | 327 kts | 262° |
| 2026-05-09 20:38 | 34.63496 | -118.02978 | 11759 ft | 327 kts | 262° |
| 2026-05-09 20:38 | 34.63195 | -118.05701 | 11378 ft | 325 kts | 262° |
| 2026-05-09 20:38 | 34.62687 | -118.08368 | 11007 ft | 324 kts | 255° |
| 2026-05-09 20:39 | 34.62101 | -118.11005 | 10656 ft | 323 kts | 255° |
| 2026-05-09 20:39 | 34.61517 | -118.13635 | 10277 ft | 321 kts | 255° |
| 2026-05-09 20:39 | 34.60946 | -118.16202 | 10129 ft | 309 kts | 255° |
| 2026-05-09 20:39 | 34.60393 | -118.18685 | 9888 ft | 302 kts | 255° |
| 2026-05-09 20:40 | 34.59850 | -118.21116 | 9762 ft | 298 kts | 255° |
| 2026-05-09 20:40 | 34.59308 | -118.23535 | 9514 ft | 296 kts | 255° |
| 2026-05-09 20:40 | 34.58769 | -118.25940 | 9213 ft | 295 kts | 255° |
| 2026-05-09 20:40 | 34.58234 | -118.28340 | 8917 ft | 294 kts | 255° |
| 2026-05-09 20:41 | 34.57701 | -118.30727 | 8650 ft | 293 kts | 255° |
| 2026-05-09 20:41 | 34.57168 | -118.33107 | 8353 ft | 291 kts | 255° |
| 2026-05-09 20:41 | 34.56639 | -118.35470 | 8082 ft | 290 kts | 255° |
| 2026-05-09 20:41 | 34.56111 | -118.37824 | 8038 ft | 289 kts | 255° |
| 2026-05-09 20:42 | 34.55582 | -118.40173 | 8054 ft | 289 kts | 255° |
| 2026-05-09 20:42 | 34.55055 | -118.42514 | 8042 ft | 282 kts | 255° |
| 2026-05-09 20:42 | 34.54551 | -118.44751 | 7863 ft | 273 kts | 255° |
| 2026-05-09 20:42 | 34.53990 | -118.46944 | 7478 ft | 271 kts | 245° |
| 2026-05-09 20:43 | 34.52949 | -118.48782 | 7149 ft | 269 kts | 225° |
| 2026-05-09 20:43 | 34.51419 | -118.50051 | 6829 ft | 267 kts | 204° |
| 2026-05-09 20:43 | 34.49689 | -118.50844 | 6467 ft | 265 kts | 201° |
| 2026-05-09 20:43 | 34.47927 | -118.51457 | 6158 ft | 263 kts | 187° |
| 2026-05-09 20:44 | 34.46137 | -118.51423 | 6055 ft | 251 kts | 176° |
| 2026-05-09 20:44 | 34.44431 | -118.51260 | 5944 ft | 242 kts | 176° |
| 2026-05-09 20:44 | 34.42772 | -118.51102 | 5610 ft | 238 kts | 176° |
| 2026-05-09 20:44 | 34.41124 | -118.50946 | 5241 ft | 237 kts | 176° |
| 2026-05-09 20:45 | 34.39491 | -118.50791 | 4882 ft | 234 kts | 176° |
| 2026-05-09 20:45 | 34.37875 | -118.50637 | 4528 ft | 231 kts | 176° |
| 2026-05-09 20:45 | 34.36299 | -118.50486 | 4181 ft | 222 kts | 176° |
| 2026-05-09 20:45 | 34.34787 | -118.50344 | 3825 ft | 214 kts | 176° |
| 2026-05-09 20:46 | 34.33329 | -118.50206 | 3476 ft | 205 kts | 176° |
| 2026-05-09 20:46 | 34.31964 | -118.50078 | 3204 ft | 189 kts | 176° |
| 2026-05-09 20:46 | 34.30694 | -118.49957 | 2904 ft | 177 kts | 175° |
| 2026-05-09 20:46 | 34.29515 | -118.49845 | 2650 ft | 161 kts | 176° |
| 2026-05-09 20:47 | 34.28452 | -118.49745 | 2406 ft | 147 kts | 175° |
| 2026-05-09 20:47 | 34.27449 | -118.49650 | 2182 ft | 143 kts | 174° |
| 2026-05-09 20:47 | 34.26459 | -118.49556 | 1957 ft | 143 kts | 173° |
| 2026-05-09 20:47 | 34.25469 | -118.49463 | 1756 ft | 143 kts | 173° |
| 2026-05-09 20:48 | 34.24472 | -118.49365 | 1524 ft | 144 kts | 173° |
| 2026-05-09 20:48 | 34.23478 | -118.49269 | 1304 ft | 144 kts | 173° |
| 2026-05-09 20:48 | 34.22482 | -118.49184 | 1028 ft | 143 kts | 173° |
| 2026-05-09 20:48 | 34.21497 | -118.49072 | 832 ft | 142 kts | 174° |
| 2026-05-09 20:49 | 34.20565 | -118.48985 | 781 ft | 119 kts | 176° |
| 2026-05-09 20:49 | 34.20004 | -118.48946 | 754 ft | 39 kts | 178° |
| 2026-05-09 20:49 | 34.19805 | -118.48929 | 755 ft | 26 kts | 175° |
| 2026-05-09 20:49 | 34.19712 | -118.48965 | 752 ft | 13 kts | 266° |
| 2026-05-09 20:50 | 34.19773 | -118.49011 | 752 ft | 10 kts | 354° |
| 2026-05-09 20:50 | 34.19838 | -118.49018 | 754 ft | 9 kts | 355° |
| 2026-05-09 20:50 | 34.19904 | -118.49025 | 756 ft | 10 kts | 355° |
| 2026-05-09 20:50 | 34.19988 | -118.49033 | 756 ft | 16 kts | 355° |
| 2026-05-09 20:51 | 34.20121 | -118.49044 | 761 ft | 20 kts | 353° |
| 2026-05-09 20:51 | 34.20256 | -118.49077 | 766 ft | 20 kts | 346° |
| 2026-05-09 20:51 | 34.20384 | -118.49103 | 772 ft | 17 kts | 354° |
| 2026-05-09 20:51 | 34.20484 | -118.49113 | 777 ft | 12 kts | 355° |
| 2026-05-09 20:52 | 34.20564 | -118.49121 | 780 ft | 11 kts | 355° |
| 2026-05-09 20:52 | 34.20634 | -118.49127 | 782 ft | 10 kts | 355° |
| 2026-05-09 20:52 | 34.20703 | -118.49133 | 785 ft | 9 kts | 356° |
| 2026-05-09 20:52 | 34.20785 | -118.49138 | 789 ft | 16 kts | 357° |
| 2026-05-09 20:53 | 34.20895 | -118.49149 | 792 ft | 15 kts | 355° |
| 2026-05-09 20:53 | 34.20996 | -118.49159 | 792 ft | 15 kts | 356° |
| 2026-05-09 20:53 | 34.21099 | -118.49169 | 793 ft | 15 kts | 355° |
| 2026-05-09 20:53 | 34.21207 | -118.49180 | 796 ft | 15 kts | 356° |
| 2026-05-09 20:54 | 34.21309 | -118.49188 | 796 ft | 17 kts | 356° |
| 2026-05-09 20:54 | 34.21431 | -118.49199 | 795 ft | 19 kts | 355° |
| 2026-05-09 20:54 | 34.21555 | -118.49219 | 799 ft | 16 kts | 353° |
| 2026-05-09 20:54 | 34.21654 | -118.49231 | 804 ft | 13 kts | 356° |
| 2026-05-09 20:55 | 34.21714 | -118.49272 | 805 ft | 10 kts | 292° |
| 2026-05-09 20:55 | 34.21727 | -118.49350 | 806 ft | 10 kts | 279° |
| 2026-05-09 20:55 | 34.21737 | -118.49436 | 807 ft | 11 kts | 278° |
| 2026-05-09 20:55 | 34.21752 | -118.49555 | 810 ft | 16 kts | 278° |
| 2026-05-09 20:56 | 34.21760 | -118.49616 | 811 ft | 0 kts | 278° |
| 2026-05-09 20:56 | 34.21811 | -118.49694 | 813 ft | 1 kts | 358° |
| 2026-05-09 20:56 | 34.21831 | -118.49685 | 813 ft | 5 kts | 34° |
| 2026-05-09 20:57 | 34.21840 | -118.49665 | 813 ft | 0 kts | 62° |